Terminal Aerodrome Forecast
Issued by NWS

Home | Current Version | Previous Version | Graphics & Text | Print | Product List | Glossary On
Versions: 1 2 3 4 5 6 7 8 9 10
754
FTUS43 KLSX 221729
TAFSUS
TAF
KSUS 221729Z 2218/2318 03012G18KT P6SM FEW025 BKN100
     FM230000 04007KT P6SM BKN150
     FM230600 01004KT P6SM SKC=

USA.gov is the U.S. government's official web portal to all federal, state and local government web resources and services.